createdAt,value
2023-03-05T00:02:33.535Z,1.5
2023-03-05T00:32:33.341Z,2.1
2023-03-05T01:02:34.758Z,2.9
2023-03-05T01:32:34.682Z,2.5
2023-03-05T02:02:32.435Z,2.5
2023-03-05T02:32:32.195Z,2.2
2023-03-05T03:02:31.913Z,1.7
2023-03-05T03:32:32.033Z,0.7
2023-03-05T04:02:31.509Z,1.8
2023-03-05T04:32:31.473Z,1.7
2023-03-05T05:02:31.581Z,0.8
2023-03-05T05:32:30.271Z,1
2023-03-05T06:02:29.688Z,1
2023-03-05T06:32:29.359Z,0.9
2023-03-05T07:02:29.114Z,0.6
2023-03-05T07:32:28.741Z,0.5
2023-03-05T08:02:28.411Z,0.8
2023-03-05T08:32:28.460Z,1
2023-03-05T09:02:28.341Z,0.8
2023-03-05T09:32:28.664Z,2.2
2023-03-05T10:02:30.029Z,3.6
2023-03-05T10:32:39.971Z,3.8
2023-03-05T11:02:29.570Z,3
2023-03-05T11:32:34.862Z,2.3
2023-03-05T12:02:31.668Z,2.7
2023-03-05T12:32:51.771Z,1.3
2023-03-05T13:02:36.212Z,1.6
2023-03-05T13:32:36.772Z,1.9
2023-03-05T14:02:34.120Z,3.8
2023-03-05T14:32:36.949Z,2
2023-03-05T15:02:35.974Z,1.9
2023-03-05T15:32:37.196Z,1.7
2023-03-05T16:02:40.523Z,1.4
2023-03-05T16:32:38.386Z,1.7
2023-03-05T17:02:38.876Z,1
2023-03-05T17:32:41.120Z,1
2023-03-05T18:02:40.120Z,1.5
2023-03-05T18:32:40.322Z,1.2
2023-03-05T19:02:40.088Z,1.7
2023-03-05T19:32:40.451Z,2.4
2023-03-05T20:02:40.108Z,3.3
2023-03-05T20:32:40.671Z,3.7
2023-03-05T21:02:39.817Z,3.2
2023-03-05T21:32:40.463Z,2.6
2023-03-05T22:02:39.607Z,1.8
2023-03-05T22:32:41.052Z,1.2
2023-03-05T23:02:41.121Z,1.5
2023-03-05T23:32:38.654Z,2
